createdAt,value
2022-08-11T00:00:02.801Z,78.50
2022-08-11T00:02:37.525Z,78.60
2022-08-11T00:05:10.496Z,78.90
2022-08-11T00:07:45.018Z,79.10
2022-08-11T00:10:15.551Z,79.50
2022-08-11T00:12:45.153Z,79.50
2022-08-11T00:15:14.120Z,79.90
2022-08-11T00:17:42.832Z,80.00
2022-08-11T00:20:17.113Z,80.20
2022-08-11T00:22:48.227Z,80.40
2022-08-11T00:25:19.101Z,80.40
2022-08-11T00:27:49.031Z,80.60
2022-08-11T00:30:18.418Z,80.70
2022-08-11T00:32:56.213Z,80.70
2022-08-11T00:35:55.090Z,80.90
2022-08-11T00:38:25.741Z,80.80
2022-08-11T00:41:00.650Z,80.80
2022-08-11T00:43:48.789Z,80.90
2022-08-11T00:46:23.746Z,80.90
2022-08-11T00:49:04.891Z,81.00
2022-08-11T00:52:03.962Z,81.30
2022-08-11T00:55:04.394Z,82.10
2022-08-11T00:57:57.417Z,81.40
2022-08-11T01:00:27.756Z,81.60
2022-08-11T01:03:19.431Z,81.70
2022-08-11T01:06:13.031Z,81.80
2022-08-11T01:09:22.388Z,82.00
2022-08-11T01:12:06.553Z,82.00
2022-08-11T01:15:12.270Z,82.10
2022-08-11T01:18:28.944Z,82.20
2022-08-11T01:21:14.102Z,83.00
2022-08-11T01:24:40.167Z,83.30
2022-08-11T01:27:22.556Z,82.50
2022-08-11T01:30:19.088Z,82.80
2022-08-11T01:33:26.754Z,83.00
2022-08-11T01:36:41.185Z,83.00
2022-08-11T01:39:36.309Z,83.10
2022-08-11T01:42:48.763Z,83.20
2022-08-11T01:45:31.733Z,83.40
2022-08-11T01:48:06.783Z,83.50
2022-08-11T01:50:48.209Z,83.60
2022-08-11T01:53:29.735Z,83.70
2022-08-11T01:56:11.545Z,84.00
2022-08-11T01:58:45.877Z,83.90
2022-08-11T02:01:27.721Z,83.90
2022-08-11T02:03:59.929Z,83.90
2022-08-11T02:06:56.736Z,83.90
2022-08-11T02:09:54.529Z,83.90
2022-08-11T02:12:39.782Z,83.90
2022-08-11T02:15:16.798Z,83.90
2022-08-11T02:18:00.134Z,83.80
2022-08-11T02:20:50.536Z,84.10
2022-08-11T02:24:04.797Z,84.00
2022-08-11T02:26:40.612Z,84.10
2022-08-11T02:29:17.108Z,84.20
2022-08-11T02:32:28.761Z,84.40
2022-08-11T02:35:13.464Z,84.40
2022-08-11T02:37:53.794Z,84.40
2022-08-11T02:40:35.473Z,84.60
2022-08-11T02:43:15.128Z,84.80
2022-08-11T02:45:55.705Z,84.90
2022-08-11T02:48:53.604Z,85.10
2022-08-11T02:51:28.834Z,85.20
2022-08-11T02:54:08.538Z,85.20
2022-08-11T02:56:46.445Z,85.30
2022-08-11T02:59:44.071Z,85.50
2022-08-11T03:02:21.457Z,85.50
2022-08-11T03:05:03.130Z,85.50
2022-08-11T03:07:37.356Z,85.80
2022-08-11T03:10:14.321Z,85.90
2022-08-11T03:13:07.611Z,86.00
2022-08-11T03:16:06.919Z,86.10
2022-08-11T03:18:42.452Z,86.00
2022-08-11T03:21:19.252Z,86.00
2022-08-11T03:23:57.006Z,85.90
2022-08-11T03:26:30.789Z,85.90
2022-08-11T03:29:09.993Z,86.70
2022-08-11T03:31:47.984Z,85.90
2022-08-11T03:34:18.591Z,85.80
2022-08-11T03:37:17.777Z,85.80
2022-08-11T03:39:58.895Z,85.80
2022-08-11T03:42:41.578Z,85.80
2022-08-11T03:45:21.765Z,85.70
2022-08-11T03:48:05.042Z,85.80
2022-08-11T03:50:56.478Z,85.80
2022-08-11T03:53:56.987Z,85.80
2022-08-11T03:57:09.033Z,85.90
2022-08-11T04:00:11.171Z,85.90
2022-08-11T04:03:31.092Z,86.00
2022-08-11T04:06:43.149Z,86.00
2022-08-11T04:09:46.830Z,86.00
2022-08-11T04:12:35.925Z,86.00
2022-08-11T04:16:10.978Z,86.00
2022-08-11T04:19:18.795Z,86.00
2022-08-11T04:22:37.178Z,86.00
2022-08-11T04:25:24.780Z,85.90
2022-08-11T04:28:30.443Z,86.10
2022-08-11T04:31:08.265Z,86.10
2022-08-11T04:34:01.053Z,86.10
2022-08-11T04:37:29.333Z,86.00
2022-08-11T04:40:33.940Z,86.00
2022-08-11T04:44:02.467Z,85.90
2022-08-11T04:47:09.100Z,85.90
2022-08-11T04:50:13.823Z,86.00
2022-08-11T04:53:20.628Z,85.90
2022-08-11T04:56:24.305Z,86.00
2022-08-11T04:59:32.944Z,86.00
2022-08-11T05:02:37.732Z,86.10
2022-08-11T05:05:34.585Z,86.10
2022-08-11T05:08:45.029Z,86.10
2022-08-11T05:11:37.203Z,86.80
2022-08-11T05:14:47.636Z,86.90
2022-08-11T05:17:36.514Z,86.10
2022-08-11T05:20:22.746Z,86.00
2022-08-11T05:23:11.414Z,86.00
2022-08-11T05:26:45.021Z,86.00
2022-08-11T05:29:20.081Z,85.80
2022-08-11T05:32:14.075Z,85.70
2022-08-11T05:34:52.997Z,85.50
2022-08-11T05:37:27.443Z,86.30
2022-08-11T05:40:24.040Z,85.50
2022-08-11T05:43:14.673Z,85.20
2022-08-11T05:46:04.741Z,85.10
2022-08-11T05:48:53.762Z,85.00
2022-08-11T05:51:52.341Z,85.00
2022-08-11T05:54:43.004Z,84.90
2022-08-11T05:57:49.722Z,85.40
2022-08-11T06:00:15.979Z,84.60
2022-08-11T06:02:45.448Z,84.50
2022-08-11T06:05:14.320Z,84.40
2022-08-11T06:07:48.623Z,84.40
2022-08-11T06:10:28.730Z,84.40
2022-08-11T06:13:01.131Z,84.20
2022-08-11T06:15:31.157Z,84.10
2022-08-11T06:18:02.951Z,84.10
2022-08-11T06:20:36.960Z,83.90
2022-08-11T06:23:07.760Z,83.90
2022-08-11T06:25:37.495Z,83.90
2022-08-11T06:28:08.874Z,83.70
2022-08-11T06:30:41.040Z,83.50
2022-08-11T06:33:12.822Z,83.40
2022-08-11T06:35:50.180Z,83.40
2022-08-11T06:38:32.240Z,83.30
2022-08-11T06:41:23.188Z,83.20
2022-08-11T06:43:56.407Z,83.10
2022-08-11T06:46:29.768Z,83.00
2022-08-11T06:48:59.554Z,83.00
2022-08-11T06:51:28.116Z,83.50
2022-08-11T06:54:04.640Z,82.80
2022-08-11T06:57:25.953Z,82.60
2022-08-11T07:00:02.986Z,82.40
2022-08-11T07:02:35.027Z,82.40
2022-08-11T07:05:09.423Z,82.40
2022-08-11T07:08:41.517Z,82.30
2022-08-11T07:11:46.061Z,82.00
2022-08-11T07:14:38.613Z,82.10
2022-08-11T07:17:12.350Z,82.10
2022-08-11T07:20:01.397Z,82.00
2022-08-11T07:22:51.533Z,81.90
2022-08-11T07:25:38.444Z,81.80
2022-08-11T07:28:29.453Z,81.80
2022-08-11T07:31:02.693Z,81.70
2022-08-11T07:34:06.409Z,81.60
2022-08-11T07:36:32.002Z,81.60
2022-08-11T07:39:01.463Z,81.40
2022-08-11T07:41:32.867Z,81.30
2022-08-11T07:44:08.954Z,81.20
2022-08-11T07:46:58.580Z,81.00
2022-08-11T07:49:48.623Z,80.90
2022-08-11T07:52:30.814Z,80.90
2022-08-11T07:55:02.212Z,80.80
2022-08-11T07:58:15.733Z,80.60
2022-08-11T08:00:55.905Z,80.60
2022-08-11T08:03:54.233Z,80.90
2022-08-11T08:06:42.878Z,80.30
2022-08-11T08:09:29.778Z,80.00
2022-08-11T08:12:18.515Z,79.90
2022-08-11T08:15:04.494Z,79.70
2022-08-11T08:18:09.476Z,79.30
2022-08-11T08:20:45.495Z,79.10
2022-08-11T08:23:15.644Z,79.20
2022-08-11T08:25:45.699Z,79.00
2022-08-11T08:28:16.493Z,78.90
2022-08-11T08:30:51.166Z,78.60
2022-08-11T08:33:22.279Z,78.40
2022-08-11T08:36:11.580Z,78.20
2022-08-11T08:38:43.891Z,78.10
2022-08-11T08:41:16.669Z,77.90
2022-08-11T08:43:49.131Z,77.90
2022-08-11T08:46:21.899Z,77.80
2022-08-11T08:48:53.207Z,77.70
2022-08-11T08:52:01.445Z,77.80
2022-08-11T08:54:31.594Z,77.60
2022-08-11T08:57:05.012Z,77.40
2022-08-11T08:59:47.580Z,77.40
2022-08-11T09:02:18.448Z,77.00
2022-08-11T09:05:03.761Z,77.00
2022-08-11T09:07:39.797Z,76.80
2022-08-11T09:10:12.161Z,76.20
2022-08-11T09:12:43.494Z,75.70
2022-08-11T09:15:15.048Z,75.40
2022-08-11T09:17:49.659Z,75.20
2022-08-11T09:20:21.749Z,75.40
2022-08-11T09:26:18.343Z,74.90
2022-08-11T09:28:47.881Z,74.90
2022-08-11T09:31:17.258Z,74.70
2022-08-11T09:33:46.098Z,74.60
2022-08-11T09:36:43.869Z,74.40
2022-08-11T09:39:31.473Z,74.20
2022-08-11T09:42:04.368Z,74.80
2022-08-11T09:44:48.823Z,74.10
2022-08-11T09:47:24.548Z,74.90
2022-08-11T09:49:56.276Z,74.00
2022-08-11T09:52:25.916Z,73.40
2022-08-11T09:54:55.708Z,73.40
2022-08-11T09:57:46.377Z,73.20
2022-08-11T10:00:16.168Z,72.00
2022-08-11T10:02:48.393Z,71.10
2022-08-11T10:05:36.679Z,70.30
2022-08-11T10:08:06.350Z,70.70
2022-08-11T10:10:37.695Z,70.90
2022-08-11T10:14:30.792Z,70.40
2022-08-11T10:16:15.551Z,70.40
2022-08-11T10:18:52.833Z,70.50
2022-08-11T10:21:29.251Z,70.60
2022-08-11T10:24:17.145Z,70.50
2022-08-11T10:26:55.446Z,70.20
2022-08-11T10:29:50.221Z,70.00
2022-08-11T10:32:49.323Z,69.60
2022-08-11T10:35:27.984Z,69.70
2022-08-11T10:38:06.616Z,69.70
2022-08-11T10:40:39.988Z,69.40
2022-08-11T10:43:14.285Z,69.10
2022-08-11T10:46:05.239Z,68.90
2022-08-11T10:48:38.626Z,68.40
2022-08-11T10:51:14.692Z,68.90
2022-08-11T10:54:03.412Z,69.00
2022-08-11T10:56:51.872Z,68.60
2022-08-11T10:59:20.532Z,68.20
2022-08-11T11:01:51.558Z,66.90
2022-08-11T11:04:22.760Z,66.90
2022-08-11T11:07:00.304Z,67.30
2022-08-11T11:09:32.331Z,67.00
2022-08-11T11:12:22.221Z,67.30
2022-08-11T11:15:17.812Z,66.30
2022-08-11T11:18:01.610Z,67.00
2022-08-11T11:20:37.528Z,67.20
2022-08-11T11:23:11.241Z,67.30
2022-08-11T11:26:10.125Z,67.20
2022-08-11T11:29:01.453Z,66.10
2022-08-11T11:31:37.202Z,66.40
2022-08-11T11:34:22.128Z,67.40
2022-08-11T11:36:51.766Z,66.60
2022-08-11T11:39:22.294Z,66.70
2022-08-11T11:41:51.214Z,66.60
2022-08-11T11:44:21.329Z,66.20
2022-08-11T11:46:49.736Z,65.50
2022-08-11T11:51:54.873Z,66.10
2022-08-11T11:54:26.559Z,65.80
2022-08-11T11:56:56.319Z,65.00
2022-08-11T11:59:49.705Z,65.90
2022-08-11T12:02:17.877Z,65.70
2022-08-11T12:04:48.833Z,65.30
2022-08-11T12:07:35.792Z,65.30
2022-08-11T12:10:05.251Z,64.80
2022-08-11T12:12:51.119Z,65.10
2022-08-11T12:15:30.861Z,63.90
2022-08-11T12:18:10.593Z,65.00
2022-08-11T12:20:40.808Z,64.50
2022-08-11T12:23:27.325Z,64.30
2022-08-11T12:26:28.691Z,64.50
2022-08-11T12:28:58.282Z,64.50
2022-08-11T12:31:27.000Z,64.70
2022-08-11T12:33:56.149Z,64.80
2022-08-11T12:36:25.944Z,64.40
2022-08-11T12:38:55.735Z,64.50
2022-08-11T12:41:42.035Z,64.40
2022-08-11T12:44:29.572Z,63.80
2022-08-11T12:47:01.028Z,64.70
2022-08-11T12:49:49.122Z,63.30
2022-08-11T12:52:23.408Z,63.00
2022-08-11T12:54:59.036Z,62.20
2022-08-11T12:57:52.225Z,62.10
2022-08-11T13:00:39.392Z,62.20
2022-08-11T13:03:27.296Z,61.80
2022-08-11T13:05:57.727Z,61.50
2022-08-11T13:08:29.706Z,61.40
2022-08-11T13:11:19.235Z,60.90
2022-08-11T13:13:55.600Z,61.30
2022-08-11T13:16:26.404Z,62.00
2022-08-11T13:18:55.407Z,61.70
2022-08-11T13:21:24.489Z,61.60
2022-08-11T13:23:59.656Z,61.20
2022-08-11T13:26:46.657Z,60.70
2022-08-11T13:29:24.348Z,60.20
2022-08-11T13:31:53.841Z,59.40
2022-08-11T13:34:24.097Z,59.30
2022-08-11T13:36:54.701Z,59.90
2022-08-11T13:39:26.578Z,59.70
2022-08-11T13:41:57.058Z,59.70
2022-08-11T13:44:28.501Z,59.70
2022-08-11T13:46:59.421Z,59.50
2022-08-11T13:49:28.765Z,59.60
2022-08-11T13:51:57.757Z,59.10
2022-08-11T13:54:31.178Z,58.90
2022-08-11T13:57:02.840Z,57.30
2022-08-11T13:59:31.901Z,57.70
2022-08-11T14:02:22.608Z,57.40
2022-08-11T14:05:00.284Z,57.70
2022-08-11T14:07:35.841Z,57.10
2022-08-11T14:10:08.970Z,57.00
2022-08-11T14:12:56.472Z,57.40
2022-08-11T14:15:28.922Z,57.00
2022-08-11T14:18:01.734Z,56.80
2022-08-11T14:20:52.961Z,56.70
2022-08-11T14:23:27.737Z,56.00
2022-08-11T14:26:16.077Z,55.80
2022-08-11T14:28:45.473Z,55.40
2022-08-11T14:31:15.849Z,54.90
2022-08-11T14:33:58.094Z,55.60
2022-08-11T14:36:29.793Z,55.70
2022-08-11T14:38:58.605Z,56.30
2022-08-11T14:42:11.465Z,54.60
2022-08-11T14:45:00.613Z,54.90
2022-08-11T14:47:31.736Z,54.70
2022-08-11T14:50:12.520Z,53.80
2022-08-11T14:52:48.689Z,54.40
2022-08-11T14:55:35.362Z,54.00
2022-08-11T14:58:06.478Z,53.80
2022-08-11T15:00:36.154Z,54.50
2022-08-11T15:03:12.260Z,54.60
2022-08-11T15:05:53.692Z,54.40
2022-08-11T15:08:42.472Z,53.70
2022-08-11T15:11:26.769Z,53.50
2022-08-11T15:13:57.247Z,53.00
2022-08-11T15:16:43.816Z,53.40
2022-08-11T15:19:13.247Z,53.50
2022-08-11T15:21:59.372Z,52.70
2022-08-11T15:24:30.626Z,52.40
2022-08-11T15:27:19.591Z,52.70
2022-08-11T15:30:07.296Z,53.10
2022-08-11T15:32:57.112Z,53.20
2022-08-11T15:35:48.685Z,52.60
2022-08-11T15:38:19.519Z,53.30
2022-08-11T15:41:05.640Z,53.60
2022-08-11T15:44:10.197Z,53.50
2022-08-11T15:46:44.379Z,53.10
2022-08-11T15:49:21.974Z,51.10
2022-08-11T15:52:01.928Z,51.30
2022-08-11T15:54:33.424Z,50.80
2022-08-11T15:57:03.522Z,50.90
2022-08-11T15:59:52.585Z,50.50
2022-08-11T16:02:42.972Z,51.90
2022-08-11T16:05:44.975Z,50.60
2022-08-11T16:08:05.050Z,50.90
2022-08-11T16:10:35.533Z,50.40
2022-08-11T16:13:24.480Z,50.00
2022-08-11T16:16:14.093Z,49.50
2022-08-11T16:18:51.450Z,49.40
2022-08-11T16:21:34.452Z,48.40
2022-08-11T16:24:07.726Z,48.70
2022-08-11T16:27:08.629Z,49.50
2022-08-11T16:29:32.285Z,49.50
2022-08-11T16:32:20.716Z,48.90
2022-08-11T16:35:11.873Z,49.30
2022-08-11T16:37:59.330Z,49.20
2022-08-11T16:40:29.565Z,48.20
2022-08-11T16:43:16.399Z,48.10
2022-08-11T16:46:03.246Z,48.00
2022-08-11T16:48:38.268Z,48.20
2022-08-11T16:51:11.605Z,48.10
2022-08-11T16:53:54.828Z,47.70
2022-08-11T16:56:32.877Z,48.40
2022-08-11T16:59:16.713Z,48.20
2022-08-11T17:01:50.021Z,48.60
2022-08-11T17:04:48.449Z,48.40
2022-08-11T17:07:41.623Z,47.30
2022-08-11T17:10:51.752Z,47.90
2022-08-11T17:13:29.345Z,48.50
2022-08-11T17:16:12.915Z,48.20
2022-08-11T17:18:52.539Z,47.90
2022-08-11T17:21:26.299Z,47.00
2022-08-11T17:23:59.007Z,46.80
2022-08-11T17:26:46.795Z,47.20
2022-08-11T17:29:16.122Z,47.10
2022-08-11T17:32:03.236Z,47.20
2022-08-11T17:34:49.373Z,47.00
2022-08-11T17:37:18.630Z,47.20
2022-08-11T17:39:50.406Z,47.60
2022-08-11T17:42:36.794Z,47.40
2022-08-11T17:45:24.176Z,47.60
2022-08-11T17:50:46.808Z,48.10
2022-08-11T17:53:30.570Z,48.20
2022-08-11T17:56:28.887Z,48.40
2022-08-11T17:59:17.532Z,48.70
2022-08-11T18:01:47.121Z,49.00
2022-08-11T18:04:22.356Z,49.30
2022-08-11T18:06:55.432Z,49.40
2022-08-11T18:09:42.741Z,49.50
2022-08-11T18:12:29.326Z,49.70
2022-08-11T18:15:17.381Z,49.90
2022-08-11T18:18:04.675Z,50.00
2022-08-11T18:20:50.990Z,50.10
2022-08-11T18:23:46.182Z,50.30
2022-08-11T18:26:38.207Z,50.60
2022-08-11T18:29:26.171Z,50.90
2022-08-11T18:32:21.835Z,51.00
2022-08-11T18:35:10.949Z,51.90
2022-08-11T18:38:02.091Z,51.40
2022-08-11T18:40:50.620Z,51.60
2022-08-11T18:43:39.717Z,51.80
2022-08-11T18:46:28.165Z,52.10
2022-08-11T18:49:34.268Z,52.30
2022-08-11T18:52:34.248Z,52.50
2022-08-11T18:55:21.568Z,52.70
2022-08-11T18:58:10.634Z,52.90
2022-08-11T19:00:58.147Z,53.10
2022-08-11T19:03:48.677Z,53.10
2022-08-11T19:06:40.970Z,53.30
2022-08-11T19:09:30.424Z,53.50
2022-08-11T19:12:18.206Z,53.70
2022-08-11T19:15:08.820Z,53.90
2022-08-11T19:17:59.211Z,54.10
2022-08-11T19:20:47.840Z,54.40
2022-08-11T19:23:37.309Z,54.80
2022-08-11T19:26:24.420Z,55.30
2022-08-11T19:30:04.985Z,55.70
2022-08-11T19:32:21.498Z,56.10
2022-08-11T19:35:07.704Z,56.30
2022-08-11T19:37:54.459Z,56.40
2022-08-11T19:40:41.379Z,56.90
2022-08-11T19:43:28.032Z,56.50
2022-08-11T19:46:16.856Z,56.50
2022-08-11T19:49:08.249Z,56.50
2022-08-11T19:51:55.584Z,56.80
2022-08-11T19:54:44.553Z,56.80
2022-08-11T19:57:35.786Z,57.00
2022-08-11T20:00:29.919Z,57.00
2022-08-11T20:03:16.693Z,57.20
2022-08-11T20:06:05.993Z,57.20
2022-08-11T20:08:57.843Z,57.50
2022-08-11T20:11:45.212Z,57.80
2022-08-11T20:14:32.763Z,58.40
2022-08-11T20:17:24.424Z,58.70
2022-08-11T20:20:11.102Z,59.40
2022-08-11T20:22:59.499Z,59.80
2022-08-11T20:25:45.986Z,60.00
2022-08-11T20:28:32.930Z,60.10
2022-08-11T20:31:18.784Z,60.40
2022-08-11T20:34:05.369Z,60.40
2022-08-11T20:36:54.811Z,60.30
2022-08-11T20:39:44.111Z,60.20
2022-08-11T20:42:31.274Z,60.30
2022-08-11T20:45:23.518Z,60.30
2022-08-11T20:48:14.575Z,60.10
2022-08-11T20:51:06.296Z,60.10
2022-08-11T20:53:54.119Z,60.50
2022-08-11T20:56:44.259Z,60.80
2022-08-11T20:59:33.365Z,61.70
2022-08-11T21:02:29.710Z,62.10
2022-08-11T21:05:19.689Z,63.00
2022-08-11T21:08:25.547Z,63.40
2022-08-11T21:11:14.042Z,64.00
2022-08-11T21:14:16.374Z,64.40
2022-08-11T21:17:26.941Z,65.00
2022-08-11T21:20:17.062Z,65.30
2022-08-11T21:23:10.606Z,65.70
2022-08-11T21:26:07.647Z,65.70
2022-08-11T21:28:57.899Z,65.80
2022-08-11T21:31:47.374Z,65.80
2022-08-11T21:34:37.268Z,66.00
2022-08-11T21:37:27.381Z,65.90
2022-08-11T21:40:16.986Z,65.80
2022-08-11T21:43:05.300Z,65.90
2022-08-11T21:45:52.306Z,66.30
2022-08-11T21:48:40.476Z,67.10
2022-08-11T21:51:26.260Z,66.60
2022-08-11T21:54:12.613Z,66.70
2022-08-11T21:56:59.028Z,66.90
2022-08-11T21:59:56.859Z,66.90
2022-08-11T22:02:44.848Z,67.20
2022-08-11T22:05:40.569Z,67.30
2022-08-11T22:08:26.945Z,67.60
2022-08-11T22:11:12.917Z,68.00
2022-08-11T22:14:02.945Z,67.80
2022-08-11T22:16:53.658Z,68.00
2022-08-11T22:19:42.142Z,68.10
2022-08-11T22:22:31.138Z,68.40
2022-08-11T22:25:18.271Z,69.40
2022-08-11T22:28:04.635Z,68.70
2022-08-11T22:30:50.755Z,69.00
2022-08-11T22:33:37.698Z,69.20
2022-08-11T22:36:35.037Z,69.50
2022-08-11T22:39:22.974Z,69.60
2022-08-11T22:42:08.564Z,70.00
2022-08-11T22:44:54.454Z,70.10
2022-08-11T22:47:43.643Z,70.30
2022-08-11T22:50:30.964Z,70.60
2022-08-11T22:53:18.649Z,70.80
2022-08-11T22:56:06.228Z,70.90
2022-08-11T22:58:53.012Z,71.10
2022-08-11T23:01:38.830Z,71.30
2022-08-11T23:04:42.565Z,71.40
2022-08-11T23:07:51.231Z,71.60
2022-08-11T23:10:35.412Z,71.80
2022-08-11T23:13:22.650Z,71.90
2022-08-11T23:16:08.821Z,72.20
2022-08-11T23:18:54.574Z,72.40
2022-08-11T23:21:41.293Z,72.50
2022-08-11T23:24:28.125Z,72.60
2022-08-11T23:27:14.552Z,72.90
2022-08-11T23:30:02.319Z,73.20
2022-08-11T23:32:49.785Z,73.50
2022-08-11T23:35:51.790Z,74.00
2022-08-11T23:38:42.671Z,74.10
2022-08-11T23:41:29.001Z,75.00
2022-08-11T23:44:14.717Z,74.50
2022-08-11T23:47:03.248Z,74.80
2022-08-11T23:49:49.383Z,75.00
2022-08-11T23:52:36.047Z,75.00
2022-08-11T23:55:22.676Z,75.10
2022-08-11T23:58:08.692Z,75.20
